sensor_id;sensor_type;location;lat;lon;timestamp;pressure;altitude;pressure_sealevel;temperature;humidity
76519;BME280;67029;51.054;13.798;2023-05-09T00:01:17;101091.44;;;13.74;42.33
76519;BME280;67029;51.054;13.798;2023-05-09T00:03:46;101090.16;;;13.79;42.32
76519;BME280;67029;51.054;13.798;2023-05-09T00:06:17;101091.47;;;13.77;42.45
76519;BME280;67029;51.054;13.798;2023-05-09T00:08:47;101094.80;;;13.70;42.19
76519;BME280;67029;51.054;13.798;2023-05-09T00:11:17;101087.98;;;13.57;42.46
76519;BME280;67029;51.054;13.798;2023-05-09T00:13:47;101087.59;;;13.61;42.38
76519;BME280;67029;51.054;13.798;2023-05-09T00:16:17;101088.39;;;13.65;42.24
76519;BME280;67029;51.054;13.798;2023-05-09T00:18:47;101088.25;;;13.70;42.13
76519;BME280;67029;51.054;13.798;2023-05-09T00:21:17;101085.23;;;13.67;42.08
76519;BME280;67029;51.054;13.798;2023-05-09T00:23:47;101084.47;;;13.60;42.01
76519;BME280;67029;51.054;13.798;2023-05-09T00:26:17;101080.66;;;13.53;42.13
76519;BME280;67029;51.054;13.798;2023-05-09T00:28:47;101083.75;;;13.52;42.11
76519;BME280;67029;51.054;13.798;2023-05-09T00:31:17;101079.48;;;13.54;42.00
76519;BME280;67029;51.054;13.798;2023-05-09T00:33:47;101079.72;;;13.56;41.95
76519;BME280;67029;51.054;13.798;2023-05-09T00:36:17;101075.35;;;13.50;42.02
76519;BME280;67029;51.054;13.798;2023-05-09T00:38:47;101070.70;;;13.45;42.08
76519;BME280;67029;51.054;13.798;2023-05-09T00:41:17;101066.95;;;13.28;42.28
76519;BME280;67029;51.054;13.798;2023-05-09T00:43:47;101063.34;;;13.27;42.33
76519;BME280;67029;51.054;13.798;2023-05-09T00:46:17;101067.73;;;13.22;42.34
76519;BME280;67029;51.054;13.798;2023-05-09T00:48:47;101073.27;;;13.20;42.34
76519;BME280;67029;51.054;13.798;2023-05-09T00:51:17;101058.31;;;13.21;42.30
76519;BME280;67029;51.054;13.798;2023-05-09T00:53:47;101061.33;;;13.23;42.33
76519;BME280;67029;51.054;13.798;2023-05-09T00:56:17;101060.25;;;13.23;42.24
76519;BME280;67029;51.054;13.798;2023-05-09T00:58:47;101061.03;;;13.14;42.38
76519;BME280;67029;51.054;13.798;2023-05-09T01:01:18;101062.40;;;13.13;42.39
76519;BME280;67029;51.054;13.798;2023-05-09T01:03:48;101060.79;;;13.06;42.57
76519;BME280;67029;51.054;13.798;2023-05-09T01:06:28;101063.00;;;13.05;42.57
76519;BME280;67029;51.054;13.798;2023-05-09T01:11:31;101061.59;;;12.88;42.83
76519;BME280;67029;51.054;13.798;2023-05-09T01:16:35;101059.61;;;12.99;42.65
76519;BME280;67029;51.054;13.798;2023-05-09T01:18:59;101053.59;;;12.90;42.83
76519;BME280;67029;51.054;13.798;2023-05-09T01:21:25;101048.73;;;12.78;43.27
76519;BME280;67029;51.054;13.798;2023-05-09T01:26:51;101037.03;;;12.86;42.76
76519;BME280;67029;51.054;13.798;2023-05-09T01:29:12;101041.73;;;12.76;42.89
76519;BME280;67029;51.054;13.798;2023-05-09T01:31:24;101032.30;;;12.83;42.87
76519;BME280;67029;51.054;13.798;2023-05-09T01:33:55;101032.67;;;12.74;43.01
76519;BME280;67029;51.054;13.798;2023-05-09T01:36:26;101032.63;;;12.62;43.41
76519;BME280;67029;51.054;13.798;2023-05-09T01:38:56;101028.20;;;12.56;43.47
76519;BME280;67029;51.054;13.798;2023-05-09T01:41:29;101035.98;;;12.67;43.21
76519;BME280;67029;51.054;13.798;2023-05-09T01:43:58;101036.00;;;12.72;43.20
76519;BME280;67029;51.054;13.798;2023-05-09T01:46:27;101032.31;;;12.59;43.40
76519;BME280;67029;51.054;13.798;2023-05-09T01:48:58;101030.79;;;12.51;43.62
76519;BME280;67029;51.054;13.798;2023-05-09T01:51:28;101031.49;;;12.50;43.83
76519;BME280;67029;51.054;13.798;2023-05-09T01:53:59;101027.66;;;12.35;43.82
76519;BME280;67029;51.054;13.798;2023-05-09T01:56:30;101023.05;;;12.28;43.83
76519;BME280;67029;51.054;13.798;2023-05-09T01:58:59;101020.50;;;12.37;43.90
76519;BME280;67029;51.054;13.798;2023-05-09T02:01:29;101026.03;;;12.45;43.69
76519;BME280;67029;51.054;13.798;2023-05-09T02:04:02;101026.70;;;12.51;43.81
76519;BME280;67029;51.054;13.798;2023-05-09T02:06:31;101023.48;;;12.43;43.54
76519;BME280;67029;51.054;13.798;2023-05-09T02:09:01;101020.41;;;12.39;43.61
76519;BME280;67029;51.054;13.798;2023-05-09T02:11:31;101022.43;;;12.40;43.61
76519;BME280;67029;51.054;13.798;2023-05-09T02:14:01;101015.98;;;12.32;43.73
76519;BME280;67029;51.054;13.798;2023-05-09T02:16:31;101009.83;;;12.29;43.80
76519;BME280;67029;51.054;13.798;2023-05-09T02:19:01;101008.53;;;12.30;43.78
76519;BME280;67029;51.054;13.798;2023-05-09T02:21:32;101010.83;;;12.30;43.78
76519;BME280;67029;51.054;13.798;2023-05-09T02:24:02;101011.23;;;12.30;43.74
76519;BME280;67029;51.054;13.798;2023-05-09T02:26:33;101013.12;;;12.38;43.66
76519;BME280;67029;51.054;13.798;2023-05-09T02:29:05;101014.17;;;12.27;44.10
76519;BME280;67029;51.054;13.798;2023-05-09T02:31:34;101013.59;;;12.17;44.13
76519;BME280;67029;51.054;13.798;2023-05-09T02:34:04;101009.95;;;12.07;44.33
76519;BME280;67029;51.054;13.798;2023-05-09T02:36:35;101011.58;;;11.94;44.55
76519;BME280;67029;51.054;13.798;2023-05-09T02:39:05;101006.53;;;11.99;44.53
76519;BME280;67029;51.054;13.798;2023-05-09T02:41:35;101002.42;;;11.96;44.56
76519;BME280;67029;51.054;13.798;2023-05-09T02:44:05;101003.88;;;12.03;44.55
76519;BME280;67029;51.054;13.798;2023-05-09T02:46:35;101004.08;;;12.02;44.61
76519;BME280;67029;51.054;13.798;2023-05-09T02:49:05;101002.95;;;11.92;44.43
76519;BME280;67029;51.054;13.798;2023-05-09T02:51:35;101008.36;;;11.81;45.13
76519;BME280;67029;51.054;13.798;2023-05-09T02:54:05;101004.14;;;11.77;44.88
76519;BME280;67029;51.054;13.798;2023-05-09T02:56:35;101003.42;;;11.82;44.80
76519;BME280;67029;51.054;13.798;2023-05-09T02:59:05;101008.88;;;11.87;44.48
76519;BME280;67029;51.054;13.798;2023-05-09T03:01:35;101009.39;;;11.77;44.92
76519;BME280;67029;51.054;13.798;2023-05-09T03:04:05;101007.98;;;11.75;44.62
76519;BME280;67029;51.054;13.798;2023-05-09T03:06:35;101007.64;;;11.77;44.61
76519;BME280;67029;51.054;13.798;2023-05-09T03:09:05;101006.05;;;11.82;44.53
76519;BME280;67029;51.054;13.798;2023-05-09T03:11:35;101009.77;;;11.85;44.59
76519;BME280;67029;51.054;13.798;2023-05-09T03:14:05;101004.36;;;11.82;44.49
76519;BME280;67029;51.054;13.798;2023-05-09T03:16:35;100995.19;;;11.87;44.57
76519;BME280;67029;51.054;13.798;2023-05-09T03:19:05;101000.00;;;11.76;44.71
76519;BME280;67029;51.054;13.798;2023-05-09T03:21:35;101001.73;;;11.71;44.75
76519;BME280;67029;51.054;13.798;2023-05-09T03:24:06;100999.52;;;11.75;44.70
76519;BME280;67029;51.054;13.798;2023-05-09T03:26:36;101003.77;;;11.71;44.84
76519;BME280;67029;51.054;13.798;2023-05-09T03:29:06;101000.30;;;11.71;44.74
76519;BME280;67029;51.054;13.798;2023-05-09T03:31:36;101005.56;;;11.69;44.71
76519;BME280;67029;51.054;13.798;2023-05-09T03:34:06;100996.09;;;11.66;44.85
76519;BME280;67029;51.054;13.798;2023-05-09T03:36:36;100995.29;;;11.62;44.89
76519;BME280;67029;51.054;13.798;2023-05-09T03:39:06;100992.16;;;11.61;44.98
76519;BME280;67029;51.054;13.798;2023-05-09T03:41:36;100989.29;;;11.50;45.39
76519;BME280;67029;51.054;13.798;2023-05-09T03:44:06;100988.91;;;11.41;45.45
76519;BME280;67029;51.054;13.798;2023-05-09T03:46:36;100987.08;;;11.50;45.36
76519;BME280;67029;51.054;13.798;2023-05-09T03:49:06;100983.66;;;11.53;45.00
76519;BME280;67029;51.054;13.798;2023-05-09T03:51:36;100984.45;;;11.60;45.00
76519;BME280;67029;51.054;13.798;2023-05-09T03:54:06;100984.46;;;11.59;44.95
76519;BME280;67029;51.054;13.798;2023-05-09T03:56:36;100987.25;;;11.62;44.91
76519;BME280;67029;51.054;13.798;2023-05-09T03:59:06;100987.25;;;11.61;44.83
76519;BME280;67029;51.054;13.798;2023-05-09T04:01:36;100978.47;;;11.56;44.91
76519;BME280;67029;51.054;13.798;2023-05-09T04:04:06;100979.97;;;11.52;44.95
76519;BME280;67029;51.054;13.798;2023-05-09T04:06:37;100983.69;;;11.49;45.09
76519;BME280;67029;51.054;13.798;2023-05-09T04:09:06;100980.23;;;11.50;45.03
76519;BME280;67029;51.054;13.798;2023-05-09T04:11:37;100980.59;;;11.57;45.09
76519;BME280;67029;51.054;13.798;2023-05-09T04:14:06;100978.48;;;11.67;44.79
76519;BME280;67029;51.054;13.798;2023-05-09T04:16:37;100980.50;;;11.71;44.69
76519;BME280;67029;51.054;13.798;2023-05-09T04:19:07;100982.52;;;11.68;44.76
76519;BME280;67029;51.054;13.798;2023-05-09T04:21:36;100978.59;;;11.74;44.65
76519;BME280;67029;51.054;13.798;2023-05-09T04:24:07;100974.17;;;11.77;44.48
76519;BME280;67029;51.054;13.798;2023-05-09T04:26:37;100973.61;;;11.73;44.49
76519;BME280;67029;51.054;13.798;2023-05-09T04:29:07;100968.98;;;11.71;44.63
76519;BME280;67029;51.054;13.798;2023-05-09T04:31:37;100975.20;;;11.65;44.64
76519;BME280;67029;51.054;13.798;2023-05-09T04:34:07;100969.73;;;11.73;44.58
76519;BME280;67029;51.054;13.798;2023-05-09T04:36:37;100974.59;;;11.79;44.44
76519;BME280;67029;51.054;13.798;2023-05-09T04:39:07;100968.08;;;11.85;44.27
76519;BME280;67029;51.054;13.798;2023-05-09T04:41:37;100966.91;;;11.84;44.24
76519;BME280;67029;51.054;13.798;2023-05-09T04:44:07;100966.27;;;11.94;44.04
76519;BME280;67029;51.054;13.798;2023-05-09T04:46:37;100962.75;;;11.86;44.22
76519;BME280;67029;51.054;13.798;2023-05-09T04:49:07;100969.55;;;11.85;44.26
76519;BME280;67029;51.054;13.798;2023-05-09T04:51:37;100965.52;;;11.91;44.10
76519;BME280;67029;51.054;13.798;2023-05-09T04:54:07;100964.09;;;11.93;44.02
76519;BME280;67029;51.054;13.798;2023-05-09T04:56:37;100963.96;;;11.95;43.92
76519;BME280;67029;51.054;13.798;2023-05-09T04:59:07;100957.34;;;12.06;43.85
76519;BME280;67029;51.054;13.798;2023-05-09T05:01:37;100956.27;;;12.13;43.65
76519;BME280;67029;51.054;13.798;2023-05-09T05:04:07;100958.28;;;12.05;43.80
76519;BME280;67029;51.054;13.798;2023-05-09T05:06:37;100949.46;;;12.07;43.69
76519;BME280;67029;51.054;13.798;2023-05-09T05:09:07;100948.93;;;12.17;43.74
76519;BME280;67029;51.054;13.798;2023-05-09T05:11:37;100958.62;;;12.24;43.49
76519;BME280;67029;51.054;13.798;2023-05-09T05:14:07;100950.99;;;12.33;43.33
76519;BME280;67029;51.054;13.798;2023-05-09T05:16:37;100951.92;;;12.31;43.29
76519;BME280;67029;51.054;13.798;2023-05-09T05:19:07;100957.03;;;12.36;43.33
76519;BME280;67029;51.054;13.798;2023-05-09T05:21:37;100948.70;;;12.41;43.21
76519;BME280;67029;51.054;13.798;2023-05-09T05:24:07;100948.87;;;12.41;43.21
76519;BME280;67029;51.054;13.798;2023-05-09T05:26:37;100948.98;;;12.44;43.31
76519;BME280;67029;51.054;13.798;2023-05-09T05:29:07;100944.50;;;12.51;43.24
76519;BME280;67029;51.054;13.798;2023-05-09T05:31:37;100939.81;;;12.67;43.06
76519;BME280;67029;51.054;13.798;2023-05-09T05:34:07;100946.20;;;12.71;42.93
76519;BME280;67029;51.054;13.798;2023-05-09T05:36:37;100942.41;;;12.82;42.79
76519;BME280;67029;51.054;13.798;2023-05-09T05:39:07;100941.17;;;12.93;42.71
76519;BME280;67029;51.054;13.798;2023-05-09T05:41:37;100939.55;;;13.01;42.64
76519;BME280;67029;51.054;13.798;2023-05-09T05:44:07;100941.70;;;13.09;42.65
76519;BME280;67029;51.054;13.798;2023-05-09T05:46:37;100937.09;;;13.18;42.66
76519;BME280;67029;51.054;13.798;2023-05-09T05:49:07;100932.58;;;13.25;42.62
76519;BME280;67029;51.054;13.798;2023-05-09T05:51:37;100934.96;;;13.33;42.49
76519;BME280;67029;51.054;13.798;2023-05-09T05:54:07;100938.75;;;13.38;42.36
76519;BME280;67029;51.054;13.798;2023-05-09T05:56:39;100944.06;;;13.47;42.31
76519;BME280;67029;51.054;13.798;2023-05-09T05:59:08;100940.07;;;13.43;42.26
76519;BME280;67029;51.054;13.798;2023-05-09T06:01:38;100938.70;;;13.53;42.17
76519;BME280;67029;51.054;13.798;2023-05-09T06:04:08;100934.94;;;13.56;42.04
76519;BME280;67029;51.054;13.798;2023-05-09T06:06:38;100919.02;;;13.58;42.20
76519;BME280;67029;51.054;13.798;2023-05-09T06:09:08;100914.29;;;13.61;41.73
76519;BME280;67029;51.054;13.798;2023-05-09T06:11:38;100913.58;;;13.68;41.30
76519;BME280;67029;51.054;13.798;2023-05-09T06:14:08;100909.34;;;13.77;41.20
76519;BME280;67029;51.054;13.798;2023-05-09T06:16:38;100907.46;;;13.79;41.51
76519;BME280;67029;51.054;13.798;2023-05-09T06:19:08;100902.92;;;13.90;41.12
76519;BME280;67029;51.054;13.798;2023-05-09T06:21:38;100915.06;;;14.00;40.64
76519;BME280;67029;51.054;13.798;2023-05-09T06:24:08;100907.44;;;13.99;40.35
76519;BME280;67029;51.054;13.798;2023-05-09T06:26:38;100909.84;;;14.06;40.58
76519;BME280;67029;51.054;13.798;2023-05-09T06:29:08;100905.91;;;14.18;40.17
76519;BME280;67029;51.054;13.798;2023-05-09T06:31:38;100899.54;;;14.21;40.42
76519;BME280;67029;51.054;13.798;2023-05-09T06:34:08;100902.91;;;14.36;39.73
76519;BME280;67029;51.054;13.798;2023-05-09T06:36:38;100900.65;;;14.29;39.74
76519;BME280;67029;51.054;13.798;2023-05-09T06:39:08;100902.16;;;14.18;39.92
76519;BME280;67029;51.054;13.798;2023-05-09T06:41:38;100886.27;;;14.25;39.90
76519;BME280;67029;51.054;13.798;2023-05-09T06:44:08;100882.79;;;14.43;39.75
76519;BME280;67029;51.054;13.798;2023-05-09T06:46:38;100890.91;;;14.48;39.78
76519;BME280;67029;51.054;13.798;2023-05-09T06:49:08;100888.27;;;14.63;39.33
76519;BME280;67029;51.054;13.798;2023-05-09T06:51:38;100890.25;;;14.57;39.04
76519;BME280;67029;51.054;13.798;2023-05-09T06:54:08;100883.31;;;14.54;39.04
76519;BME280;67029;51.054;13.798;2023-05-09T06:56:38;100880.54;;;14.53;38.99
76519;BME280;67029;51.054;13.798;2023-05-09T06:59:08;100879.12;;;14.54;39.21
76519;BME280;67029;51.054;13.798;2023-05-09T07:01:39;100865.77;;;14.69;39.17
76519;BME280;67029;51.054;13.798;2023-05-09T07:04:09;100865.78;;;14.87;38.90
76519;BME280;67029;51.054;13.798;2023-05-09T07:06:39;100862.03;;;14.76;38.71
76519;BME280;67029;51.054;13.798;2023-05-09T07:09:09;100862.39;;;14.83;38.90
76519;BME280;67029;51.054;13.798;2023-05-09T07:11:39;100858.82;;;14.90;38.48
76519;BME280;67029;51.054;13.798;2023-05-09T07:14:09;100854.22;;;14.80;38.29
76519;BME280;67029;51.054;13.798;2023-05-09T07:16:39;100848.08;;;14.87;38.14
76519;BME280;67029;51.054;13.798;2023-05-09T07:19:09;100848.44;;;14.90;38.54
76519;BME280;67029;51.054;13.798;2023-05-09T07:21:39;100845.52;;;15.06;37.87
76519;BME280;67029;51.054;13.798;2023-05-09T07:24:09;100847.31;;;15.16;37.57
76519;BME280;67029;51.054;13.798;2023-05-09T07:26:41;100848.30;;;15.21;37.37
76519;BME280;67029;51.054;13.798;2023-05-09T07:29:10;100844.37;;;15.29;37.46
76519;BME280;67029;51.054;13.798;2023-05-09T07:31:40;100830.03;;;15.34;37.33
76519;BME280;67029;51.054;13.798;2023-05-09T07:34:10;100838.31;;;15.35;36.98
76519;BME280;67029;51.054;13.798;2023-05-09T07:36:40;100846.82;;;15.26;37.01
76519;BME280;67029;51.054;13.798;2023-05-09T07:39:10;100828.33;;;15.33;37.12
76519;BME280;67029;51.054;13.798;2023-05-09T07:41:40;100832.57;;;15.33;37.09
76519;BME280;67029;51.054;13.798;2023-05-09T07:44:10;100817.64;;;15.39;37.34
76519;BME280;67029;51.054;13.798;2023-05-09T07:46:40;100819.27;;;15.45;37.05
76519;BME280;67029;51.054;13.798;2023-05-09T07:49:10;100814.36;;;15.67;37.11
76519;BME280;67029;51.054;13.798;2023-05-09T07:51:40;100815.28;;;15.83;37.00
76519;BME280;67029;51.054;13.798;2023-05-09T07:54:10;100804.55;;;16.11;36.74
76519;BME280;67029;51.054;13.798;2023-05-09T07:56:40;100795.56;;;16.49;36.66
76519;BME280;67029;51.054;13.798;2023-05-09T07:59:10;100801.07;;;16.73;35.85
76519;BME280;67029;51.054;13.798;2023-05-09T08:01:40;100799.56;;;16.92;34.83
76519;BME280;67029;51.054;13.798;2023-05-09T08:04:10;100788.28;;;17.10;34.28
76519;BME280;67029;51.054;13.798;2023-05-09T08:06:40;100787.88;;;17.37;34.12
76519;BME280;67029;51.054;13.798;2023-05-09T08:09:10;100780.33;;;17.65;33.26
76519;BME280;67029;51.054;13.798;2023-05-09T08:11:40;100789.86;;;17.80;33.94
76519;BME280;67029;51.054;13.798;2023-05-09T08:14:10;100793.32;;;18.04;33.29
76519;BME280;67029;51.054;13.798;2023-05-09T08:16:40;100788.58;;;18.18;33.45
76519;BME280;67029;51.054;13.798;2023-05-09T08:19:10;100786.50;;;18.48;32.47
76519;BME280;67029;51.054;13.798;2023-05-09T08:21:40;100775.96;;;18.63;32.52
76519;BME280;67029;51.054;13.798;2023-05-09T08:24:10;100772.45;;;18.90;31.86
76519;BME280;67029;51.054;13.798;2023-05-09T08:26:40;100766.17;;;19.12;31.47
76519;BME280;67029;51.054;13.798;2023-05-09T08:29:10;100773.86;;;19.34;31.11
76519;BME280;67029;51.054;13.798;2023-05-09T08:31:40;100768.05;;;19.37;30.63
76519;BME280;67029;51.054;13.798;2023-05-09T08:34:10;100777.20;;;19.50;30.12
76519;BME280;67029;51.054;13.798;2023-05-09T08:36:40;100776.98;;;19.55;29.30
76519;BME280;67029;51.054;13.798;2023-05-09T08:39:10;100767.50;;;19.50;29.67
76519;BME280;67029;51.054;13.798;2023-05-09T08:41:41;100766.69;;;19.76;30.24
76519;BME280;67029;51.054;13.798;2023-05-09T08:44:10;100768.82;;;19.89;29.11
76519;BME280;67029;51.054;13.798;2023-05-09T08:46:42;100763.06;;;20.12;30.12
76519;BME280;67029;51.054;13.798;2023-05-09T08:49:10;100762.50;;;20.35;29.26
76519;BME280;67029;51.054;13.798;2023-05-09T08:51:41;100751.42;;;20.51;29.10
76519;BME280;67029;51.054;13.798;2023-05-09T08:54:11;100750.80;;;20.67;28.92
76519;BME280;67029;51.054;13.798;2023-05-09T08:56:42;100747.80;;;20.89;28.30
76519;BME280;67029;51.054;13.798;2023-05-09T08:59:12;100735.78;;;21.09;27.21
76519;BME280;67029;51.054;13.798;2023-05-09T09:01:42;100734.50;;;21.24;27.96
76519;BME280;67029;51.054;13.798;2023-05-09T09:04:12;100738.58;;;21.32;27.68
76519;BME280;67029;51.054;13.798;2023-05-09T09:06:43;100738.38;;;21.28;27.18
76519;BME280;67029;51.054;13.798;2023-05-09T09:09:14;100741.94;;;21.40;27.49
76519;BME280;67029;51.054;13.798;2023-05-09T09:11:44;100726.18;;;21.61;28.32
76519;BME280;67029;51.054;13.798;2023-05-09T09:14:23;100733.05;;;21.76;27.32
76519;BME280;67029;51.054;13.798;2023-05-09T09:16:46;100730.19;;;21.89;27.15
76519;BME280;67029;51.054;13.798;2023-05-09T09:19:16;100721.92;;;21.98;27.74
76519;BME280;67029;51.054;13.798;2023-05-09T09:21:47;100734.91;;;21.97;26.19
76519;BME280;67029;51.054;13.798;2023-05-09T09:24:21;100735.41;;;21.91;26.82
76519;BME280;67029;51.054;13.798;2023-05-09T09:26:49;100722.05;;;21.49;27.23
76519;BME280;67029;51.054;13.798;2023-05-09T09:29:19;100715.46;;;21.69;27.78
76519;BME280;67029;51.054;13.798;2023-05-09T09:31:52;100715.08;;;21.98;27.71
76519;BME280;67029;51.054;13.798;2023-05-09T09:34:21;100739.34;;;22.28;27.41
76519;BME280;67029;51.054;13.798;2023-05-09T09:36:50;100722.75;;;22.46;27.06
76519;BME280;67029;51.054;13.798;2023-05-09T09:39:20;100724.44;;;22.62;27.42
76519;BME280;67029;51.054;13.798;2023-05-09T09:41:50;100720.75;;;22.94;25.87
76519;BME280;67029;51.054;13.798;2023-05-09T09:44:21;100712.62;;;23.13;26.68
76519;BME280;67029;51.054;13.798;2023-05-09T09:46:52;100712.90;;;23.38;26.63
76519;BME280;67029;51.054;13.798;2023-05-09T09:49:23;100703.62;;;23.73;26.53
76519;BME280;67029;51.054;13.798;2023-05-09T09:51:52;100706.55;;;24.08;26.96
76519;BME280;67029;51.054;13.798;2023-05-09T09:54:25;100709.52;;;24.39;24.82
76519;BME280;67029;51.054;13.798;2023-05-09T09:56:52;100706.30;;;24.39;24.32
76519;BME280;67029;51.054;13.798;2023-05-09T09:59:24;100700.85;;;24.17;24.50
76519;BME280;67029;51.054;13.798;2023-05-09T10:02:00;100703.12;;;23.83;24.89
76519;BME280;67029;51.054;13.798;2023-05-09T10:04:26;100693.76;;;23.77;24.90
76519;BME280;67029;51.054;13.798;2023-05-09T10:06:55;100696.88;;;23.46;24.84
76519;BME280;67029;51.054;13.798;2023-05-09T10:09:26;100693.99;;;23.48;25.78
76519;BME280;67029;51.054;13.798;2023-05-09T10:11:55;100688.64;;;23.97;26.47
76519;BME280;67029;51.054;13.798;2023-05-09T10:14:25;100684.16;;;24.46;25.30
76519;BME280;67029;51.054;13.798;2023-05-09T10:16:56;100682.12;;;24.85;26.08
76519;BME280;67029;51.054;13.798;2023-05-09T10:19:26;100680.55;;;25.33;24.96
76519;BME280;67029;51.054;13.798;2023-05-09T10:22:04;100673.44;;;25.67;24.58
76519;BME280;67029;51.054;13.798;2023-05-09T10:24:33;100671.43;;;25.85;23.32
76519;BME280;67029;51.054;13.798;2023-05-09T10:27:02;100664.56;;;26.02;23.75
76519;BME280;67029;51.054;13.798;2023-05-09T10:29:33;100674.23;;;26.25;23.60
76519;BME280;67029;51.054;13.798;2023-05-09T10:32:03;100657.98;;;26.44;23.03
76519;BME280;67029;51.054;13.798;2023-05-09T10:34:31;100653.20;;;26.50;21.99
76519;BME280;67029;51.054;13.798;2023-05-09T10:37:00;100653.12;;;26.64;22.28
76519;BME280;67029;51.054;13.798;2023-05-09T10:39:34;100656.52;;;26.96;22.40
76519;BME280;67029;51.054;13.798;2023-05-09T10:42:01;100651.50;;;27.05;21.97
76519;BME280;67029;51.054;13.798;2023-05-09T10:44:31;100655.12;;;27.19;21.86
76519;BME280;67029;51.054;13.798;2023-05-09T10:47:02;100635.99;;;27.25;21.31
76519;BME280;67029;51.054;13.798;2023-05-09T10:49:32;100634.98;;;27.49;21.48
76519;BME280;67029;51.054;13.798;2023-05-09T10:52:02;100631.53;;;27.54;20.96
76519;BME280;67029;51.054;13.798;2023-05-09T10:54:35;100627.39;;;27.48;20.80
76519;BME280;67029;51.054;13.798;2023-05-09T10:57:04;100617.55;;;27.34;21.20
76519;BME280;67029;51.054;13.798;2023-05-09T10:59:41;100612.59;;;27.50;21.20
76519;BME280;67029;51.054;13.798;2023-05-09T11:02:04;100604.06;;;27.82;21.28
76519;BME280;67029;51.054;13.798;2023-05-09T11:04:34;100603.02;;;28.19;21.38
76519;BME280;67029;51.054;13.798;2023-05-09T11:07:25;100601.68;;;28.48;20.38
76519;BME280;67029;51.054;13.798;2023-05-09T11:09:36;100594.29;;;28.58;19.99
76519;BME280;67029;51.054;13.798;2023-05-09T11:12:13;100597.07;;;28.83;20.28
76519;BME280;67029;51.054;13.798;2023-05-09T11:14:45;100585.47;;;28.87;19.85
76519;BME280;67029;51.054;13.798;2023-05-09T11:17:14;100585.23;;;28.98;18.98
76519;BME280;67029;51.054;13.798;2023-05-09T11:22:15;100592.21;;;28.80;17.44
76519;BME280;67029;51.054;13.798;2023-05-09T11:24:38;100575.75;;;28.29;18.61
76519;BME280;67029;51.054;13.798;2023-05-09T11:27:22;100575.50;;;28.11;18.90
76519;BME280;67029;51.054;13.798;2023-05-09T11:29:45;100572.05;;;27.84;19.33
76519;BME280;67029;51.054;13.798;2023-05-09T11:32:12;100564.70;;;27.82;19.61
76519;BME280;67029;51.054;13.798;2023-05-09T11:34:42;100563.52;;;27.61;19.75
76519;BME280;67029;51.054;13.798;2023-05-09T11:37:15;100561.08;;;27.29;18.87
76519;BME280;67029;51.054;13.798;2023-05-09T11:40:00;100560.78;;;26.79;19.24
76519;BME280;67029;51.054;13.798;2023-05-09T11:42:11;100547.39;;;26.22;20.02
76519;BME280;67029;51.054;13.798;2023-05-09T11:44:41;100547.08;;;26.51;20.86
76519;BME280;67029;51.054;13.798;2023-05-09T11:47:11;100547.06;;;26.91;20.60
76519;BME280;67029;51.054;13.798;2023-05-09T11:49:42;100547.00;;;27.28;20.47
76519;BME280;67029;51.054;13.798;2023-05-09T11:52:12;100526.50;;;27.64;19.70
76519;BME280;67029;51.054;13.798;2023-05-09T11:54:42;100519.95;;;28.00;20.04
76519;BME280;67029;51.054;13.798;2023-05-09T11:57:12;100512.03;;;28.39;19.48
76519;BME280;67029;51.054;13.798;2023-05-09T11:59:43;100509.16;;;28.61;19.09
76519;BME280;67029;51.054;13.798;2023-05-09T12:02:13;100500.91;;;28.75;19.06
76519;BME280;67029;51.054;13.798;2023-05-09T12:04:43;100499.13;;;28.58;18.93
76519;BME280;67029;51.054;13.798;2023-05-09T12:07:13;100505.56;;;28.58;18.08
76519;BME280;67029;51.054;13.798;2023-05-09T12:09:43;100501.41;;;28.53;18.13
76519;BME280;67029;51.054;13.798;2023-05-09T12:12:13;100486.34;;;28.59;18.68
76519;BME280;67029;51.054;13.798;2023-05-09T12:14:43;100481.56;;;28.33;18.25
76519;BME280;67029;51.054;13.798;2023-05-09T12:17:13;100484.00;;;28.54;18.40
76519;BME280;67029;51.054;13.798;2023-05-09T12:19:43;100481.23;;;28.84;18.66
76519;BME280;67029;51.054;13.798;2023-05-09T12:22:13;100495.80;;;28.96;18.26
76519;BME280;67029;51.054;13.798;2023-05-09T12:24:43;100488.57;;;28.89;18.17
76519;BME280;67029;51.054;13.798;2023-05-09T12:27:13;100477.48;;;28.80;17.69
76519;BME280;67029;51.054;13.798;2023-05-09T12:29:43;100478.92;;;28.82;18.21
76519;BME280;67029;51.054;13.798;2023-05-09T12:32:17;100471.02;;;28.90;18.59
76519;BME280;67029;51.054;13.798;2023-05-09T12:34:44;100469.48;;;29.01;18.26
76519;BME280;67029;51.054;13.798;2023-05-09T12:37:18;100474.08;;;29.14;17.88
76519;BME280;67029;51.054;13.798;2023-05-09T12:42:15;100466.98;;;28.93;17.62
76519;BME280;67029;51.054;13.798;2023-05-09T12:44:49;100455.66;;;29.24;18.05
76519;BME280;67029;51.054;13.798;2023-05-09T12:47:16;100452.45;;;29.67;17.92
76519;BME280;67029;51.054;13.798;2023-05-09T12:49:49;100451.41;;;29.95;17.58
76519;BME280;67029;51.054;13.798;2023-05-09T12:52:17;100444.92;;;30.08;17.35
76519;BME280;67029;51.054;13.798;2023-05-09T12:54:47;100444.28;;;30.38;16.95
76519;BME280;67029;51.054;13.798;2023-05-09T12:57:21;100443.50;;;30.19;16.58
76519;BME280;67029;51.054;13.798;2023-05-09T12:59:47;100433.91;;;30.13;17.81
76519;BME280;67029;51.054;13.798;2023-05-09T13:02:18;100433.48;;;30.41;17.18
76519;BME280;67029;51.054;13.798;2023-05-09T13:04:47;100440.08;;;30.22;16.89
76519;BME280;67029;51.054;13.798;2023-05-09T13:07:17;100427.06;;;30.04;16.77